Time;durP1;ratioP1;P1;durP2;ratioP2;P2;SDS_P1;SDS_P2;PMS_P1;PMS_P2;Temp;Humidity;BMP_temperature;BMP_pressure;BME280_temperature;BME280_humidity;BME280_pressure;Samples;Min_cycle;Max_cycle;Signal;HPM_P1;HPM_P2
2021/10/16 00:00:54;;;;;;;1.63;1.50;;;;;;;8.13;77.77;99476.53;5016806;28;20053;-63
2021/10/16 00:03:21;;;;;;;5.67;1.73;;;;;;;8.14;77.18;99470.22;5048633;28;20037;-63
2021/10/16 00:05:46;;;;;;;3.17;1.50;;;;;;;8.16;77.21;99473.53;5016554;28;20049;-65
2021/10/16 00:08:11;;;;;;;3.37;1.47;;;;;;;8.17;76.99;99477.81;5016603;28;20401;-62
2021/10/16 00:10:37;;;;;;;3.50;1.70;;;;;;;8.15;77.18;99471.88;5016421;28;20041;-63
2021/10/16 00:13:02;;;;;;;1.83;1.63;;;;;;;8.15;78.07;99476.34;5017174;28;20117;-65
2021/10/16 00:15:29;;;;;;;2.47;1.27;;;;;;;8.12;79.29;99497.94;5017220;28;20488;-65
2021/10/16 00:17:54;;;;;;;2.43;1.63;;;;;;;8.00;79.13;99534.63;5016240;28;20040;-64
2021/10/16 00:20:20;;;;;;;2.27;1.40;;;;;;;7.77;80.86;99532.75;5016092;28;20035;-65
2021/10/16 00:22:45;;;;;;;3.90;1.73;;;;;;;7.64;80.12;99537.81;5015610;28;20042;-62
2021/10/16 00:25:11;;;;;;;3.53;1.47;;;;;;;7.45;79.55;99532.94;5016961;28;20145;-66
2021/10/16 00:27:36;;;;;;;3.30;1.40;;;;;;;7.21;78.47;99525.91;5018363;28;20034;-64
2021/10/16 00:30:02;;;;;;;1.53;1.30;;;;;;;7.10;78.43;99535.03;5018590;28;20489;-64
2021/10/16 00:32:28;;;;;;;1.90;1.37;;;;;;;7.11;79.53;99563.16;5016546;28;20100;-64
2021/10/16 00:34:53;;;;;;;2.40;1.20;;;;;;;7.06;79.08;99557.56;5016970;28;20046;-65
2021/10/16 00:37:18;;;;;;;2.70;1.50;;;;;;;6.99;78.71;99564.53;5016778;28;20125;-65
2021/10/16 00:39:44;;;;;;;1.73;1.53;;;;;;;6.87;78.65;99544.69;5017194;28;20558;-64
2021/10/16 00:42:09;;;;;;;3.63;1.67;;;;;;;6.91;78.33;99547.81;5017942;28;20045;-64
2021/10/16 00:44:36;;;;;;;2.23;2.03;;;;;;;6.92;77.94;99558.25;5017103;28;20065;-64
2021/10/16 00:47:02;;;;;;;1.53;0.87;;;;;;;6.88;76.71;99572.81;5015627;28;20038;-63
2021/10/16 00:49:28;;;;;;;2.60;1.00;;;;;;;6.69;76.61;99567.88;5015132;28;20037;-63
2021/10/16 00:51:54;;;;;;;1.20;0.80;;;;;;;6.62;76.59;99558.94;5015352;28;20448;-64
2021/10/16 00:54:21;;;;;;;2.00;1.20;;;;;;;6.15;76.59;99504.09;5014768;28;20042;-63
2021/10/16 00:56:49;;;;;;;11.53;1.70;;;;;;;6.43;77.44;99581.28;5014730;28;20512;-63
2021/10/16 00:59:15;;;;;;;4.38;1.27;;;;;;;6.05;77.22;99533.31;5014683;28;20416;-64
2021/10/16 01:01:40;;;;;;;4.60;1.23;;;;;;;6.21;76.67;99577.44;5014545;28;20056;-63
2021/10/16 01:04:06;;;;;;;2.53;0.90;;;;;;;6.10;75.68;99554.00;5013976;28;20044;-63
2021/10/16 01:06:35;;;;;;;3.13;1.40;;;;;;;6.14;75.36;99582.56;5014202;28;20519;-63
2021/10/16 01:09:01;;;;;;;;;;;;;;;6.16;75.93;99585.88;5015107;28;20465;-64
2021/10/16 01:11:53;;;;;;;4.03;1.93;;;;;;;6.04;74.95;99586.34;5012935;28;19925;-64
2021/10/16 01:14:20;;;;;;;5.90;2.30;;;;;;;5.81;75.38;99568.44;5012057;28;20053;-67
2021/10/16 01:16:49;;;;;;;1.83;1.10;;;;;;;6.06;74.87;99597.56;5013919;28;20401;-63
2021/10/16 01:19:18;;;;;;;1.83;1.00;;;;;;;5.93;75.23;99589.28;5014377;28;20074;-63
2021/10/16 01:21:46;;;;;;;3.88;1.23;;;;;;;5.96;75.46;99589.78;5014292;28;20113;-64
2021/10/16 01:24:13;;;;;;;1.13;1.00;;;;;;;5.92;74.98;99587.63;5014208;28;20068;-64
2021/10/16 01:26:41;;;;;;;2.10;1.17;;;;;;;5.98;75.82;99600.19;5014040;28;20093;-63
2021/10/16 01:29:09;;;;;;;2.67;1.35;;;;;;;5.92;76.53;99599.03;5013776;28;20045;-63
2021/10/16 01:31:37;;;;;;;6.27;1.20;;;;;;;5.91;75.03;99594.75;5013808;28;20473;-62
2021/10/16 01:34:03;;;;;;;2.10;1.38;;;;;;;5.81;75.67;99592.22;5014013;28;20135;-63
2021/10/16 01:36:47;;;;;;;1.60;1.20;;;;;;;5.88;75.92;99609.06;5013353;28;20046;-64
2021/10/16 01:39:13;;;;;;;2.43;1.23;;;;;;;5.90;76.46;99615.06;5013631;28;20556;-63
2021/10/16 01:41:39;;;;;;;4.30;1.30;;;;;;;5.89;76.52;99620.47;5013662;28;20037;-62
2021/10/16 01:44:05;;;;;;;1.37;1.03;;;;;;;5.94;75.97;99620.00;5013924;28;20181;-63
2021/10/16 01:46:31;;;;;;;2.00;1.60;;;;;;;6.00;76.18;99620.19;5013591;28;20061;-62
2021/10/16 01:48:57;;;;;;;1.90;1.13;;;;;;;6.02;76.02;99622.66;5013461;28;20563;-63
2021/10/16 01:51:22;;;;;;;4.23;1.70;;;;;;;5.93;75.36;99628.94;5013263;28;20038;-63
2021/10/16 01:53:47;;;;;;;1.97;1.33;;;;;;;5.86;76.21;99634.81;5013102;28;20041;-63
2021/10/16 01:56:13;;;;;;;3.03;1.47;;;;;;;5.69;75.31;99604.03;5013392;28;20484;-62
2021/10/16 01:58:38;;;;;;;2.67;1.20;;;;;;;5.87;75.24;99636.47;5013895;28;20038;-64
2021/10/16 02:01:04;;;;;;;2.50;1.60;;;;;;;5.82;75.92;99625.56;5013273;28;20049;-64
2021/10/16 02:03:29;;;;;;;2.73;2.13;;;;;;;5.68;75.93;99615.59;5013535;28;20541;-63
2021/10/16 02:05:54;;;;;;;2.43;1.10;;;;;;;5.62;75.59;99621.50;5015345;28;20046;-64
2021/10/16 02:08:20;;;;;;;3.00;1.17;;;;;;;5.55;76.37;99620.50;5015409;28;20116;-63
2021/10/16 02:10:46;;;;;;;2.40;1.30;;;;;;;5.49;75.66;99619.31;5015445;28;20504;-62
2021/10/16 02:13:11;;;;;;;3.17;1.57;;;;;;;5.60;76.00;99615.56;5014309;28;20381;-63
2021/10/16 02:15:37;;;;;;;4.47;1.60;;;;;;;5.63;75.42;99623.16;5012221;28;20061;-64
2021/10/16 02:18:03;;;;;;;3.67;1.70;;;;;;;5.63;75.27;99632.91;5011941;28;20045;-63
2021/10/16 02:20:28;;;;;;;2.33;1.40;;;;;;;5.63;75.53;99639.03;5011742;28;20451;-65
2021/10/16 02:22:53;;;;;;;5.33;2.03;;;;;;;5.52;75.84;99631.38;5012670;28;20029;-63
2021/10/16 02:25:19;;;;;;;3.03;1.80;;;;;;;5.30;75.46;99606.34;5012685;28;20038;-63
2021/10/16 02:27:44;;;;;;;3.20;1.60;;;;;;;5.44;75.56;99644.53;5013113;28;20034;-63
2021/10/16 02:30:10;;;;;;;4.63;2.20;;;;;;;5.36;76.65;99632.13;5012598;28;20042;-63
2021/10/16 02:32:35;;;;;;;3.53;1.77;;;;;;;5.41;76.54;99645.66;5012716;28;20037;-65
2021/10/16 02:35:01;;;;;;;6.00;2.00;;;;;;;5.35;76.87;99634.91;5012803;28;20034;-65
2021/10/16 02:37:27;;;;;;;4.87;1.27;;;;;;;5.29;75.89;99625.81;5012485;28;20064;-65
2021/10/16 02:39:52;;;;;;;2.10;1.37;;;;;;;5.47;76.37;99652.13;5012372;28;20040;-61
2021/10/16 02:42:18;;;;;;;4.17;1.67;;;;;;;5.44;76.18;99629.50;5012456;28;20370;-62
2021/10/16 02:44:43;;;;;;;2.40;1.73;;;;;;;5.62;76.37;99658.50;5012410;28;20405;-64
2021/10/16 02:47:09;;;;;;;4.13;1.57;;;;;;;5.55;75.55;99642.47;5012840;28;20033;-64
2021/10/16 02:49:34;;;;;;;2.97;1.80;;;;;;;5.37;76.12;99625.03;5012365;28;20400;-66
2021/10/16 02:51:59;;;;;;;7.10;1.33;;;;;;;5.49;76.31;99663.34;5012269;28;20037;-63
2021/10/16 02:54:25;;;;;;;2.93;1.60;;;;;;;5.38;76.26;99661.00;5012281;28;20483;-64
2021/10/16 02:56:50;;;;;;;3.13;1.57;;;;;;;5.31;77.41;99654.69;5012355;28;20042;-63
2021/10/16 02:59:16;;;;;;;2.93;1.93;;;;;;;5.25;76.97;99667.53;5012796;28;20038;-63
2021/10/16 03:01:41;;;;;;;4.30;2.53;;;;;;;5.26;76.86;99677.09;5012017;28;20045;-63
2021/10/16 03:04:07;;;;;;;4.03;1.67;;;;;;;5.12;77.28;99651.25;5011340;28;20034;-63
2021/10/16 03:06:32;;;;;;;4.07;2.00;;;;;;;5.12;77.23;99667.09;5012606;28;20037;-63
2021/10/16 03:08:57;;;;;;;2.47;1.60;;;;;;;5.07;77.97;99668.53;5011103;28;20068;-63
2021/10/16 03:11:23;;;;;;;3.00;1.80;;;;;;;4.99;78.53;99671.97;5012452;28;20128;-66
2021/10/16 03:13:48;;;;;;;2.17;1.27;;;;;;;4.94;78.39;99674.25;5012297;28;20137;-63
2021/10/16 03:16:16;;;;;;;2.87;1.60;;;;;;;4.87;78.27;99686.34;5012116;28;20041;-63
2021/10/16 03:18:42;;;;;;;3.13;1.95;;;;;;;4.78;78.36;99677.56;5012180;28;20041;-63
2021/10/16 03:21:07;;;;;;;3.73;1.50;;;;;;;4.75;77.98;99671.75;5012116;28;20047;-64
2021/10/16 03:23:32;;;;;;;1.70;1.60;;;;;;;4.79;78.85;99681.03;5012109;28;20533;-63
2021/10/16 03:25:58;;;;;;;3.73;1.47;;;;;;;4.78;78.22;99696.00;5013042;28;20041;-62
2021/10/16 03:28:23;;;;;;;9.57;1.60;;;;;;;4.80;78.35;99698.50;5016279;28;20038;-63
2021/10/16 03:30:49;;;;;;;4.67;1.57;;;;;;;4.71;77.77;99671.22;5016028;28;20488;-64
2021/10/16 03:33:14;;;;;;;3.57;1.40;;;;;;;4.78;78.07;99690.75;5016691;28;20038;-63
2021/10/16 03:35:41;;;;;;;3.33;1.40;;;;;;;4.85;77.12;99693.59;5018057;28;20054;-63
2021/10/16 03:38:06;;;;;;;3.67;1.60;;;;;;;4.79;77.72;99699.47;5017250;28;20033;-62
2021/10/16 03:40:31;;;;;;;2.07;1.20;;;;;;;4.84;77.07;99705.97;5017177;28;20925;-64
2021/10/16 03:42:57;;;;;;;1.87;1.30;;;;;;;4.84;77.08;99720.97;5016824;28;20038;-66
2021/10/16 03:45:22;;;;;;;3.73;1.50;;;;;;;4.78;76.98;99719.75;5014957;28;20136;-63
2021/10/16 03:47:48;;;;;;;1.73;1.30;;;;;;;4.64;77.17;99709.75;5015942;28;20399;-63
2021/10/16 03:50:13;;;;;;;2.23;1.43;;;;;;;4.59;77.25;99698.78;5015711;28;20124;-63
2021/10/16 03:52:39;;;;;;;3.40;1.80;;;;;;;4.62;77.02;99706.41;5015478;28;20032;-64
2021/10/16 03:55:06;;;;;;;1.77;1.60;;;;;;;4.68;77.37;99712.91;5015485;28;20029;-65
2021/10/16 03:57:31;;;;;;;7.70;1.53;;;;;;;4.77;77.09;99706.72;5015808;28;20041;-64
2021/10/16 03:59:57;;;;;;;2.67;1.90;;;;;;;4.86;77.57;99711.09;5015619;28;20261;-63
2021/10/16 04:02:23;;;;;;;4.57;1.90;;;;;;;4.61;76.92;99667.81;5015438;28;20057;-63
2021/10/16 04:04:48;;;;;;;2.67;2.10;;;;;;;4.84;77.15;99713.88;5015388;28;20140;-64
2021/10/16 04:07:13;;;;;;;3.13;1.57;;;;;;;4.81;77.23;99714.19;5015334;28;20033;-63
2021/10/16 04:09:39;;;;;;;5.20;2.33;;;;;;;4.18;77.03;99642.22;5014385;28;20065;-65
2021/10/16 04:12:05;;;;;;;2.90;2.47;;;;;;;4.68;77.56;99731.38;5015921;28;20088;-62
2021/10/16 04:14:30;;;;;;;5.47;3.07;;;;;;;4.53;76.70;99713.41;5015509;28;20033;-63
2021/10/16 04:16:56;;;;;;;5.53;3.87;;;;;;;4.50;77.03;99697.91;5015676;28;20115;-65
2021/10/16 04:19:21;;;;;;;3.53;3.10;;;;;;;4.47;77.90;99692.91;5015595;28;20113;-63
2021/10/16 04:21:47;;;;;;;3.53;3.07;;;;;;;4.40;77.57;99696.31;5015418;28;20120;-65
2021/10/16 04:24:13;;;;;;;7.50;3.37;;;;;;;4.37;77.65;99700.06;5015142;28;20029;-63
2021/10/16 04:26:38;;;;;;;5.23;3.80;;;;;;;4.48;77.52;99720.13;5015028;28;20508;-63
2021/10/16 04:29:05;;;;;;;4.43;3.93;;;;;;;4.43;78.25;99722.38;5015244;28;20037;-62
2021/10/16 04:31:30;;;;;;;4.00;3.57;;;;;;;4.37;78.28;99710.63;5013697;28;20045;-62
2021/10/16 04:33:56;;;;;;;6.03;3.40;;;;;;;4.40;78.48;99712.97;5014879;28;20293;-63
2021/10/16 04:36:21;;;;;;;5.00;4.10;;;;;;;4.45;78.00;99718.59;5014643;28;20077;-63
2021/10/16 04:38:48;;;;;;;4.63;3.70;;;;;;;4.43;77.75;99717.09;5013849;28;20402;-63
2021/10/16 04:41:15;;;;;;;4.90;3.50;;;;;;;4.43;78.02;99717.09;5014467;28;20133;-62
2021/10/16 04:43:41;;;;;;;3.87;3.23;;;;;;;4.46;78.30;99722.91;5015007;28;20308;-64
2021/10/16 04:46:11;;;;;;;5.97;3.47;;;;;;;4.47;77.92;99727.19;5015023;28;20300;-62
2021/10/16 04:48:41;;;;;;;4.93;3.40;;;;;;;4.42;78.33;99721.53;5014567;28;20037;-63
2021/10/16 04:51:07;;;;;;;6.23;4.27;;;;;;;4.40;78.25;99734.06;5014321;28;20635;-62
2021/10/16 04:53:33;;;;;;;6.47;4.10;;;;;;;4.46;78.34;99736.09;5015454;28;20288;-64
2021/10/16 04:55:59;;;;;;;5.00;3.97;;;;;;;4.48;77.67;99733.31;5014630;28;20030;-62
2021/10/16 04:58:24;;;;;;;4.77;4.03;;;;;;;4.41;78.53;99727.78;5014738;28;20038;-63
2021/10/16 05:00:49;;;;;;;7.37;3.50;;;;;;;4.54;77.64;99745.88;5014200;28;20144;-64
2021/10/16 05:03:15;;;;;;;5.37;4.30;;;;;;;4.56;77.31;99739.47;5014329;28;20048;-63
2021/10/16 05:05:40;;;;;;;6.30;3.70;;;;;;;4.63;77.00;99745.84;5013976;28;20409;-62
2021/10/16 05:08:06;;;;;;;8.10;4.10;;;;;;;4.74;76.95;99757.13;5014438;28;20037;-64
2021/10/16 05:10:33;;;;;;;5.53;4.23;;;;;;;4.74;76.45;99746.59;5014667;28;20116;-68
2021/10/16 05:12:58;;;;;;;4.23;3.13;;;;;;;4.88;76.80;99748.69;5014312;28;20276;-63
2021/10/16 05:15:24;;;;;;;5.20;4.17;;;;;;;4.94;76.51;99763.94;5013731;28;20296;-62
2021/10/16 05:17:49;;;;;;;6.20;4.00;;;;;;;4.99;76.23;99756.41;5014296;28;20038;-63
2021/10/16 05:20:14;;;;;;;4.33;3.87;;;;;;;4.97;76.06;99738.09;5014024;28;20038;-65
2021/10/16 05:22:40;;;;;;;5.83;4.30;;;;;;;4.97;75.77;99753.09;5014339;28;20705;-63
2021/10/16 05:25:05;;;;;;;10.70;4.53;;;;;;;5.01;75.98;99759.72;5014197;28;20052;-63
2021/10/16 05:27:31;;;;;;;6.20;4.80;;;;;;;4.98;75.49;99744.19;5014270;28;20460;-61
2021/10/16 05:29:56;;;;;;;9.83;4.67;;;;;;;5.00;75.59;99751.94;5014108;28;20037;-61
2021/10/16 05:32:22;;;;;;;6.63;4.53;;;;;;;5.02;75.96;99758.72;5013992;28;20112;-61
2021/10/16 05:34:47;;;;;;;6.03;4.37;;;;;;;5.00;75.89;99758.06;5013707;28;20485;-61
2021/10/16 05:37:12;;;;;;;6.17;4.43;;;;;;;5.14;75.27;99765.41;5013631;28;20034;-62
2021/10/16 05:39:38;;;;;;;6.00;4.77;;;;;;;4.85;74.76;99718.16;5013942;28;20034;-62
2021/10/16 05:42:05;;;;;;;10.43;6.23;;;;;;;5.13;74.93;99766.41;5013847;28;20041;-63
2021/10/16 05:44:30;;;;;;;5.00;4.13;;;;;;;5.20;74.77;99782.47;5013148;28;20049;-69
2021/10/16 05:46:56;;;;;;;5.83;4.63;;;;;;;5.24;73.89;99765.34;5013527;28;20746;-70
2021/10/16 05:49:21;;;;;;;7.20;5.07;;;;;;;5.21;74.38;99755.94;5013208;28;20080;-69
2021/10/16 05:51:47;;;;;;;6.77;4.50;;;;;;;5.29;73.90;99785.03;5013619;28;20046;-69
2021/10/16 05:54:12;;;;;;;6.23;4.17;;;;;;;5.29;74.10;99768.38;5013641;28;20400;-73
2021/10/16 05:56:38;;;;;;;7.87;4.37;;;;;;;5.36;73.75;99772.03;5013865;28;20044;-72
2021/10/16 05:59:15;;;;;;;4.87;4.33;;;;;;;5.41;74.06;99769.78;5013931;28;20042;-70
2021/10/16 06:01:41;;;;;;;6.93;5.33;;;;;;;5.43;73.55;99762.53;5011033;28;20053;-62
2021/10/16 06:04:07;;;;;;;5.53;4.60;;;;;;;5.63;73.79;99792.22;5013304;28;20288;-67
2021/10/16 06:06:33;;;;;;;4.00;3.60;;;;;;;5.70;72.75;99782.69;5013191;28;20073;-65
2021/10/16 06:08:58;;;;;;;8.23;4.07;;;;;;;5.73;72.63;99781.53;5012685;28;20413;-66
2021/10/16 06:11:24;;;;;;;7.63;3.60;;;;;;;5.71;72.47;99779.06;5013173;28;20117;-63
2021/10/16 06:13:50;;;;;;;5.57;3.40;;;;;;;5.80;73.04;99787.88;5013602;28;20044;-63
2021/10/16 06:16:15;;;;;;;5.63;3.10;;;;;;;5.84;71.70;99779.47;5013009;28;20137;-65
2021/10/16 06:18:43;;;;;;;2.97;2.67;;;;;;;5.87;71.54;99773.88;5013028;28;20261;-65
2021/10/16 06:21:09;;;;;;;4.60;3.17;;;;;;;5.94;71.21;99789.97;5013256;28;20089;-64
2021/10/16 06:23:34;;;;;;;3.97;2.63;;;;;;;5.94;70.67;99784.69;5013241;28;20632;-63
2021/10/16 06:26:00;;;;;;;3.33;2.83;;;;;;;5.92;71.35;99783.19;5013055;28;20473;-64
2021/10/16 06:28:25;;;;;;;3.03;2.80;;;;;;;5.94;71.15;99783.84;5012758;28;20125;-65
2021/10/16 06:30:51;;;;;;;4.73;2.27;;;;;;;5.95;71.04;99804.00;5012652;28;20045;-64
2021/10/16 06:33:16;;;;;;;3.03;2.63;;;;;;;5.86;72.80;99792.53;5012745;28;20041;-65
2021/10/16 06:35:42;;;;;;;2.90;2.47;;;;;;;5.80;73.18;99791.34;5012667;28;20034;-63
2021/10/16 06:38:08;;;;;;;4.27;3.27;;;;;;;5.80;72.37;99809.84;5012804;28;20404;-64
2021/10/16 06:40:34;;;;;;;4.23;2.60;;;;;;;5.37;72.35;99743.84;5012496;28;20490;-63
2021/10/16 06:42:59;;;;;;;4.03;2.27;;;;;;;5.76;72.39;99811.13;5010904;28;20049;-61
2021/10/16 06:45:28;;;;;;;4.00;2.53;;;;;;;5.79;72.64;99810.84;5012566;28;20038;-61
2021/10/16 06:47:54;;;;;;;4.47;2.47;;;;;;;5.77;72.39;99799.56;5012664;28;20041;-66
2021/10/16 06:50:20;;;;;;;3.53;2.50;;;;;;;5.72;72.70;99780.72;5012659;28;20037;-65
2021/10/16 06:52:45;;;;;;;4.63;2.53;;;;;;;5.87;72.30;99797.66;5012753;28;20595;-63
2021/10/16 06:55:11;;;;;;;2.93;2.47;;;;;;;6.03;71.46;99809.34;5013142;28;20493;-63
2021/10/16 06:57:37;;;;;;;3.57;2.20;;;;;;;6.23;70.73;99818.72;5016065;28;20049;-65
2021/10/16 07:00:04;;;;;;;3.43;2.50;;;;;;;6.13;70.94;99784.47;5013668;28;20113;-67
2021/10/16 07:02:29;;;;;;;6.27;2.47;;;;;;;6.41;70.24;99811.53;5010948;28;20149;-67
2021/10/16 07:04:55;;;;;;;2.33;2.07;;;;;;;6.46;70.39;99824.28;5012291;28;20121;-65
2021/10/16 07:07:20;;;;;;;6.67;3.40;;;;;;;6.42;70.54;99815.84;5012005;28;20535;-65
2021/10/16 07:09:45;;;;;;;3.23;1.80;;;;;;;6.35;69.67;99820.06;5012524;28;20084;-64
2021/10/16 07:12:11;;;;;;;4.40;2.43;;;;;;;6.29;70.63;99828.66;5012405;28;20100;-63
2021/10/16 07:14:36;;;;;;;3.27;2.00;;;;;;;5.76;70.86;99760.09;5012114;28;20053;-63
2021/10/16 07:17:02;;;;;;;2.37;2.13;;;;;;;6.28;70.46;99832.28;5012169;28;20655;-61
2021/10/16 07:19:27;;;;;;;3.17;2.30;;;;;;;6.24;70.86;99833.59;5010845;28;20033;-66
2021/10/16 07:21:53;;;;;;;3.30;1.93;;;;;;;6.23;71.29;99831.94;5012022;28;20044;-64
2021/10/16 07:24:19;;;;;;;4.20;2.20;;;;;;;6.04;72.36;99821.56;5011828;28;20040;-64
2021/10/16 07:26:45;;;;;;;5.07;1.93;;;;;;;5.97;73.81;99825.81;5012282;28;20042;-64
2021/10/16 07:29:10;;;;;;;3.27;1.67;;;;;;;5.91;74.01;99832.56;5012259;28;20524;-62
2021/10/16 07:31:36;;;;;;;3.03;2.00;;;;;;;5.81;73.07;99827.34;5011884;28;20144;-65
2021/10/16 07:34:01;;;;;;;3.33;1.90;;;;;;;5.82;73.70;99833.47;5011921;28;20052;-63
2021/10/16 07:36:32;;;;;;;3.40;1.83;;;;;;;5.86;72.47;99830.38;5012124;28;20038;-63
2021/10/16 07:38:58;;;;;;;2.43;1.93;;;;;;;5.95;72.15;99833.09;5012016;28;20038;-62
2021/10/16 07:41:23;;;;;;;3.83;2.23;;;;;;;6.03;72.54;99825.19;5011941;28;20040;-63
2021/10/16 07:43:48;;;;;;;3.53;1.93;;;;;;;6.05;71.09;99821.41;5011967;28;20034;-63
2021/10/16 07:46:14;;;;;;;7.30;2.47;;;;;;;6.25;71.26;99829.97;5011946;28;20037;-60
2021/10/16 07:48:39;;;;;;;4.47;2.03;;;;;;;6.21;70.73;99820.69;5010569;28;20044;-61
2021/10/16 07:51:05;;;;;;;3.97;1.93;;;;;;;6.43;70.29;99837.81;5011903;28;20045;-64
2021/10/16 07:53:30;;;;;;;3.97;1.77;;;;;;;6.55;69.32;99843.66;5011951;28;20041;-61
2021/10/16 07:55:56;;;;;;;1.57;1.37;;;;;;;6.58;69.20;99832.75;5011817;28;20038;-61
2021/10/16 07:58:22;;;;;;;2.23;1.50;;;;;;;6.61;69.24;99833.25;5011749;28;20042;-60
2021/10/16 08:00:48;;;;;;;2.93;1.70;;;;;;;6.74;68.28;99840.75;5015868;28;20166;-63
2021/10/16 08:03:13;;;;;;;2.93;1.20;;;;;;;6.77;67.98;99843.91;5015655;28;20073;-63
2021/10/16 08:05:39;;;;;;;2.77;1.20;;;;;;;6.75;68.97;99837.13;5016292;28;20029;-61
2021/10/16 08:08:04;;;;;;;5.43;1.50;;;;;;;6.74;67.34;99824.88;5013400;28;20037;-61
2021/10/16 08:10:30;;;;;;;2.37;1.53;;;;;;;6.81;68.00;99845.22;5010340;28;20053;-62
2021/10/16 08:12:55;;;;;;;2.80;2.00;;;;;;;6.74;69.20;99849.53;5013196;28;20034;-65
2021/10/16 08:15:21;;;;;;;6.03;1.90;;;;;;;6.57;67.35;99818.69;5014894;28;20083;-62
2021/10/16 08:17:46;;;;;;;4.10;1.37;;;;;;;6.64;70.31;99861.19;5015279;28;20117;-64
2021/10/16 08:20:12;;;;;;;5.50;1.77;;;;;;;6.47;70.18;99841.81;5015201;28;20168;-62
2021/10/16 08:22:42;;;;;;;5.17;1.80;;;;;;;6.47;71.73;99869.09;5013889;28;20132;-60
2021/10/16 08:25:10;;;;;;;7.90;2.70;;;;;;;6.34;71.47;99871.31;5014878;28;20108;-65
2021/10/16 08:27:35;;;;;;;4.30;1.90;;;;;;;6.43;71.96;99875.69;5014966;28;20072;-60
2021/10/16 08:30:01;;;;;;;6.13;2.23;;;;;;;6.59;71.23;99871.44;5015025;28;20493;-61
2021/10/16 08:32:26;;;;;;;4.43;2.10;;;;;;;6.64;70.43;99866.50;5015015;28;20080;-64
2021/10/16 08:34:51;;;;;;;1.47;1.37;;;;;;;6.52;68.89;99858.84;5015084;28;20041;-62
2021/10/16 08:37:17;;;;;;;3.00;1.97;;;;;;;6.53;69.20;99831.41;5015267;28;20041;-60
2021/10/16 08:39:42;;;;;;;4.90;2.07;;;;;;;6.81;69.10;99863.75;5014938;28;20033;-60
2021/10/16 08:42:08;;;;;;;2.30;2.10;;;;;;;6.83;67.48;99871.53;5014961;28;20029;-64
2021/10/16 08:44:35;;;;;;;3.70;1.67;;;;;;;6.77;68.13;99861.59;5014858;28;20044;-64
2021/10/16 08:47:00;;;;;;;2.13;1.80;;;;;;;6.74;68.15;99862.75;5015179;28;20084;-62
2021/10/16 08:49:31;;;;;;;4.60;1.40;;;;;;;6.68;67.63;99873.16;5015011;28;20026;-62
2021/10/16 08:51:57;;;;;;;4.13;1.63;;;;;;;6.61;68.05;99854.41;5014813;28;20041;-65
2021/10/16 08:54:22;;;;;;;4.07;1.47;;;;;;;6.78;66.50;99887.91;5014514;28;20052;-65
2021/10/16 08:56:47;;;;;;;2.27;1.30;;;;;;;6.80;67.42;99888.56;5013449;28;20140;-64
2021/10/16 08:59:13;;;;;;;3.00;2.03;;;;;;;6.62;68.85;99863.19;5014399;28;20021;-67
2021/10/16 09:01:57;;;;;;;1.80;1.60;;;;;;;6.62;70.23;99894.94;5013955;28;20120;-65
2021/10/16 09:04:23;;;;;;;3.20;1.50;;;;;;;5.90;69.55;99799.19;5014468;28;20065;-63
2021/10/16 09:06:48;;;;;;;2.77;1.30;;;;;;;6.29;70.95;99884.19;5014573;28;20503;-64
2021/10/16 09:09:16;;;;;;;2.10;1.50;;;;;;;6.29;71.61;99900.03;5014087;28;20040;-66
2021/10/16 09:11:49;;;;;;;5.00;1.60;;;;;;;6.13;72.41;99892.03;5014014;28;20029;-68
2021/10/16 09:14:19;;;;;;;2.33;1.70;;;;;;;6.00;71.27;99910.09;5012605;28;20030;-65
2021/10/16 09:17:06;;;;;;;4.47;1.63;;;;;;;5.81;70.31;99893.41;5014374;28;20030;-64
2021/10/16 09:19:34;;;;;;;1.93;1.83;;;;;;;5.74;73.05;99910.84;4994837;28;20045;-62
2021/10/16 09:22:02;;;;;;;4.10;2.07;;;;;;;5.74;73.52;99892.34;4994861;28;20045;-63
2021/10/16 09:24:30;;;;;;;5.15;1.65;;;;;;;5.92;73.31;99904.75;4994670;28;20042;-61
2021/10/16 09:27:09;;;;;;;3.72;1.48;;;;;;;6.10;71.43;99895.81;4994692;28;20108;-63
2021/10/16 09:29:40;;;;;;;4.68;1.85;;;;;;;6.24;70.66;99893.56;4994423;28;20037;-63
2021/10/16 09:32:12;;;;;;;4.93;2.13;;;;;;;6.26;70.78;99900.34;4994515;28;20042;-65
2021/10/16 09:34:42;;;;;;;4.43;1.90;;;;;;;6.30;70.83;99880.53;4994463;28;20038;-63
2021/10/16 09:37:11;;;;;;;1.80;1.70;;;;;;;6.35;68.90;99888.84;4995081;28;20047;-63
2021/10/16 09:39:41;;;;;;;1.88;1.40;;;;;;;6.38;68.83;99888.56;4993487;28;20038;-60
2021/10/16 09:42:09;;;;;;;2.30;1.73;;;;;;;6.41;68.03;99914.69;4993966;28;20119;-62
2021/10/16 09:44:39;;;;;;;1.70;1.43;;;;;;;6.58;66.70;99897.06;4993842;28;20038;-62
2021/10/16 09:47:05;;;;;;;1.80;1.40;;;;;;;6.88;66.85;99890.41;4993841;28;20038;-62
2021/10/16 09:49:36;;;;;;;3.37;1.47;;;;;;;6.98;67.47;99912.31;4993667;28;20520;-62
2021/10/16 09:52:04;;;;;;;2.13;1.67;;;;;;;6.91;69.32;99927.16;4994054;28;20030;-67
2021/10/16 09:54:30;;;;;;;4.17;1.83;;;;;;;6.82;70.11;99914.88;4993599;28;20061;-65
2021/10/16 09:57:00;;;;;;;3.93;1.60;;;;;;;6.65;70.50;99921.94;4995296;28;20096;-65
2021/10/16 09:59:27;;;;;;;3.80;1.87;;;;;;;6.54;69.85;99914.25;5013063;28;20449;-64
2021/10/16 10:01:53;;;;;;;2.10;1.10;;;;;;;6.38;67.97;99920.28;5012996;28;20060;-63
2021/10/16 10:04:20;;;;;;;1.53;1.20;;;;;;;6.27;68.29;99920.53;5013028;28;20129;-63
2021/10/16 10:06:47;;;;;;;1.60;1.10;;;;;;;6.25;68.33;99926.97;5013173;28;20029;-63
2021/10/16 10:09:14;;;;;;;2.80;1.30;;;;;;;6.13;68.44;99921.09;5013036;28;20511;-63
2021/10/16 10:11:40;;;;;;;1.50;1.40;;;;;;;6.10;67.56;99924.06;5013102;28;20497;-64
2021/10/16 10:14:06;;;;;;;5.27;1.20;;;;;;;6.09;67.45;99931.16;5012733;28;20493;-65
2021/10/16 10:16:32;;;;;;;1.50;1.00;;;;;;;5.91;68.83;99917.13;5012948;28;20034;-61
2021/10/16 10:19:00;;;;;;;1.43;1.23;;;;;;;5.89;67.56;99913.78;5013240;28;20073;-63
2021/10/16 10:21:37;;;;;;;2.10;1.17;;;;;;;5.95;67.25;99928.22;5013039;28;20129;-64
2021/10/16 10:24:05;;;;;;;5.57;1.30;;;;;;;5.98;67.00;99941.13;5011435;28;20045;-68
2021/10/16 10:26:39;;;;;;;2.17;1.50;;;;;;;5.90;68.03;99939.25;5013072;28;20083;-66
2021/10/16 10:29:17;;;;;;;3.43;1.17;;;;;;;6.15;67.92;99966.72;5011556;28;20132;-65
2021/10/16 10:31:46;;;;;;;1.33;1.23;;;;;;;6.28;68.46;99961.84;5013261;28;20048;-67
2021/10/16 10:34:23;;;;;;;2.20;1.10;;;;;;;6.36;68.75;99964.56;5012560;28;20038;-65
2021/10/16 10:36:54;;;;;;;1.70;1.23;;;;;;;6.27;67.86;99938.22;5011849;28;20033;-67
2021/10/16 10:39:35;;;;;;;1.40;1.30;;;;;;;6.41;68.45;99951.72;5011335;28;20493;-65
2021/10/16 10:42:15;;;;;;;1.87;1.53;;;;;;;6.49;68.31;99951.75;5012939;28;20464;-66
2021/10/16 10:45:08;;;;;;;1.90;1.03;;;;;;;6.47;68.51;99943.16;5013196;28;20042;-70
2021/10/16 10:47:35;;;;;;;2.53;1.23;;;;;;;6.25;69.77;99938.38;5009059;28;20050;-65
2021/10/16 10:50:07;;;;;;;1.57;1.23;;;;;;;6.24;69.20;99936.69;5013717;28;20125;-65
2021/10/16 10:53:04;;;;;;;2.03;1.17;;;;;;;6.31;69.88;99940.38;5013662;28;20073;-64
2021/10/16 10:55:30;;;;;;;3.67;1.40;;;;;;;6.24;69.70;99934.06;5012158;28;20042;-65
2021/10/16 10:58:00;;;;;;;2.10;1.33;;;;;;;6.18;70.87;99934.69;5010828;28;20296;-65
2021/10/16 11:00:34;;;;;;;2.47;1.43;;;;;;;6.17;71.24;99939.16;5012442;28;20033;-65
2021/10/16 11:03:00;;;;;;;3.37;1.97;;;;;;;6.33;71.05;99942.88;5012181;28;20436;-66
2021/10/16 11:05:46;;;;;;;4.43;2.00;;;;;;;6.37;70.90;99934.50;5011985;28;20042;-64
2021/10/16 11:08:14;;;;;;;6.57;3.17;;;;;;;6.47;70.03;99955.53;5012273;28;20045;-64
2021/10/16 11:10:42;;;;;;;6.00;2.65;;;;;;;6.45;71.30;99958.34;5012191;28;20030;-65
2021/10/16 11:13:13;;;;;;;5.70;2.23;;;;;;;6.34;71.08;99989.47;5012375;28;20048;-62
2021/10/16 11:15:40;;;;;;;4.40;2.20;;;;;;;6.01;74.44;99980.47;5012162;28;20463;-70
2021/10/16 11:18:13;;;;;;;2.70;1.90;;;;;;;5.68;75.47;99979.31;5012400;28;20062;-70
2021/10/16 11:20:38;;;;;;;2.77;2.23;;;;;;;5.57;77.59;99954.78;5011603;28;20029;-69
2021/10/16 11:23:09;;;;;;;3.40;1.47;;;;;;;5.60;76.67;99966.84;5013420;28;20061;-67
2021/10/16 11:25:35;;;;;;;2.10;1.40;;;;;;;5.58;72.58;99945.06;5011302;28;20121;-67
2021/10/16 11:28:11;;;;;;;5.00;1.70;;;;;;;5.42;70.54;99926.38;5012254;28;20041;-69
2021/10/16 11:30:38;;;;;;;3.10;1.70;;;;;;;5.50;69.96;99958.19;5012636;28;20117;-70
2021/10/16 11:33:09;;;;;;;7.40;4.00;;;;;;;5.52;69.41;99953.59;5012189;28;20037;-65
2021/10/16 11:35:36;;;;;;;10.40;2.50;;;;;;;5.60;68.40;99943.91;5012270;28;20041;-65
2021/10/16 11:38:02;;;;;;;3.60;2.10;;;;;;;5.67;69.08;99930.94;5012264;28;20041;-64
2021/10/16 11:40:31;;;;;;;4.60;2.00;;;;;;;5.94;69.06;99943.25;5010662;28;20037;-65